Time;durP1;ratioP1;P1;durP2;ratioP2;P2;SDS_P1;SDS_P2;PMS_P1;PMS_P2;Temp;Humidity;BMP_temperature;BMP_pressure;BME280_temperature;BME280_humidity;BME280_pressure;Samples;Min_cycle;Max_cycle;Signal;HPM_P1;HPM_P2
2021/10/27 00:00:45;;;;;;;26.47;20.33;;;;;;;7.10;91.00;99893.91;1751111;80;21856;-67
2021/10/27 00:03:13;;;;;;;27.70;20.57;;;;;;;7.10;91.04;99890.85;1747893;80;20956;-68
2021/10/27 00:05:40;;;;;;;29.23;20.25;;;;;;;7.11;91.07;99886.51;1750991;80;21004;-67
2021/10/27 00:08:06;;;;;;;26.90;18.82;;;;;;;7.16;91.18;99891.11;1750380;80;20986;-68
2021/10/27 00:10:34;;;;;;;25.97;19.57;;;;;;;7.19;91.10;99892.31;1748211;80;21410;-67
2021/10/27 00:13:00;;;;;;;;;;;;;;;7.19;91.06;99887.13;1747426;80;21004;-67
2021/10/27 00:15:27;;;;;;;24.23;18.48;;;;;;;7.19;91.10;99891.02;1708263;83;20148;-67
2021/10/27 00:17:54;;;;;;;23.12;18.98;;;;;;;7.16;91.04;99888.06;1746324;80;21505;-68
2021/10/27 00:20:21;;;;;;;26.15;19.57;;;;;;;7.15;90.96;99885.53;1725099;82;21505;-67
2021/10/27 00:22:47;;;;;;;26.25;19.70;;;;;;;7.11;90.99;99886.51;1750222;80;21580;-67
2021/10/27 00:25:14;;;;;;;26.27;18.52;;;;;;;7.11;91.08;99881.31;1740985;81;21081;-67
2021/10/27 00:27:41;;;;;;;24.10;19.35;;;;;;;7.10;91.11;99879.63;1742009;80;21029;-67
2021/10/27 00:30:09;;;;;;;25.48;19.32;;;;;;;7.09;91.08;99884.42;1748870;81;20985;-67
2021/10/27 00:32:38;;;;;;;32.75;19.15;;;;;;;7.07;91.13;99877.13;1748654;80;21080;-68
2021/10/27 00:35:06;;;;;;;29.18;18.77;;;;;;;7.06;91.14;99888.42;1748699;80;21098;-67
2021/10/27 00:37:32;;;;;;;23.67;17.65;;;;;;;7.02;91.12;99886.80;1744745;80;21060;-67
2021/10/27 00:39:59;;;;;;;28.05;19.70;;;;;;;6.99;91.12;99880.40;1749577;80;21004;-67
2021/10/27 00:42:26;;;;;;;23.05;17.35;;;;;;;6.95;91.15;99876.59;1753759;80;20950;-67
2021/10/27 00:44:53;;;;;;;23.85;17.25;;;;;;;6.91;91.13;99885.36;1752063;80;21057;-67
2021/10/27 00:47:20;;;;;;;27.58;19.42;;;;;;;6.87;91.12;99887.66;1752634;80;21108;-67
2021/10/27 00:49:47;;;;;;;27.93;18.47;;;;;;;6.86;91.24;99891.58;1748163;80;21599;-67
2021/10/27 00:52:17;;;;;;;23.60;18.07;;;;;;;6.84;91.29;99883.86;1750751;80;21144;-68
2021/10/27 00:54:50;;;;;;;25.32;17.75;;;;;;;6.83;91.33;99879.53;1750662;80;21516;-67
2021/10/27 00:57:22;;;;;;;23.87;18.30;;;;;;;6.83;91.37;99887.33;1748120;80;21026;-67
2021/10/27 00:59:49;;;;;;;26.48;18.85;;;;;;;6.85;91.57;99883.40;1752002;80;21309;-67
2021/10/27 01:02:18;;;;;;;24.32;17.70;;;;;;;6.88;91.61;99886.75;1750195;80;21020;-67
2021/10/27 01:04:46;;;;;;;23.85;18.05;;;;;;;6.90;91.70;99883.67;1730162;80;21272;-67
2021/10/27 01:07:14;;;;;;;23.65;17.92;;;;;;;6.94;91.70;99877.47;1746693;80;20977;-67
2021/10/27 01:09:42;;;;;;;23.60;17.95;;;;;;;6.98;91.66;99882.61;1726590;80;21580;-68
2021/10/27 01:12:09;;;;;;;23.90;17.37;;;;;;;6.98;91.57;99880.01;1743659;80;21057;-67
2021/10/27 01:14:42;;;;;;;23.73;18.25;;;;;;;6.97;91.54;99886.08;1752969;80;20966;-67
2021/10/27 01:17:11;;;;;;;25.40;17.92;;;;;;;6.95;91.53;99891.33;1748976;80;20950;-67
2021/10/27 01:19:55;;;;;;;23.38;17.30;;;;;;;6.93;91.53;99880.98;1743601;80;21571;-67
2021/10/27 01:22:29;;;;;;;26.95;17.82;;;;;;;6.91;91.45;99886.66;1741757;80;20906;-67
2021/10/27 01:24:57;;;;;;;25.62;17.70;;;;;;;6.88;91.44;99885.45;1737637;80;21502;-67
2021/10/27 01:27:25;;;;;;;25.80;18.02;;;;;;;6.85;91.51;99886.84;1744346;80;21488;-67
2021/10/27 01:29:52;;;;;;;25.97;17.67;;;;;;;6.83;91.53;99888.63;1746471;80;20975;-67
2021/10/27 01:32:27;;;;;;;;;;;;;;;6.84;91.69;99880.41;1750187;80;21559;-67
2021/10/27 01:34:55;;;;;;;24.90;17.55;;;;;;;6.85;91.77;99881.65;1746145;80;20099;-66
2021/10/27 01:37:22;;;;;;;22.77;17.35;;;;;;;6.85;91.80;99880.35;1744590;80;21364;-67
2021/10/27 01:39:49;;;;;;;23.45;17.77;;;;;;;6.89;91.90;99881.98;1747818;80;20985;-67
2021/10/27 01:42:16;;;;;;;22.73;16.87;;;;;;;6.92;91.96;99884.48;1745880;80;21020;-67
2021/10/27 01:44:43;;;;;;;19.85;15.95;;;;;;;6.98;91.99;99880.85;1749217;80;21079;-67
2021/10/27 01:47:09;;;;;;;25.80;17.48;;;;;;;7.01;91.97;99877.31;1747209;80;21056;-67
2021/10/27 01:49:36;;;;;;;24.82;16.70;;;;;;;7.02;91.91;99879.00;1749706;80;21066;-66
2021/10/27 01:52:04;;;;;;;24.53;16.20;;;;;;;7.06;91.98;99885.82;1758134;80;20974;-67
2021/10/27 01:54:31;;;;;;;23.75;16.50;;;;;;;7.08;91.97;99880.11;1762002;80;21127;-67
2021/10/27 01:56:58;;;;;;;19.87;15.88;;;;;;;7.10;91.92;99877.03;1768262;80;21560;-67
2021/10/27 01:59:25;;;;;;;24.63;16.23;;;;;;;7.10;91.92;99877.03;1766401;80;21014;-67
2021/10/27 02:01:53;;;;;;;17.90;13.72;;;;;;;7.13;91.95;99871.73;1764988;80;21101;-67
2021/10/27 02:04:21;;;;;;;21.97;16.85;;;;;;;7.14;91.87;99874.72;1769882;80;21582;-66
2021/10/27 02:06:48;;;;;;;21.80;15.90;;;;;;;7.13;91.85;99874.34;1773260;79;21001;-67
2021/10/27 02:09:15;;;;;;;24.63;16.60;;;;;;;7.11;91.78;99879.59;1771868;80;21931;-67
2021/10/27 02:11:42;;;;;;;24.93;16.87;;;;;;;7.10;91.81;99879.63;1769435;80;21045;-67
2021/10/27 02:14:08;;;;;;;17.57;13.60;;;;;;;7.07;91.72;99877.13;1757087;80;22415;-67
2021/10/27 02:16:35;;;;;;;22.00;16.00;;;;;;;7.03;91.74;99874.20;1763128;80;21253;-67
2021/10/27 02:19:03;;;;;;;20.48;16.32;;;;;;;7.00;91.65;99873.00;1761846;80;21558;-67
2021/10/27 02:21:29;;;;;;;26.20;17.52;;;;;;;6.94;91.65;99872.28;1763686;80;28188;-67
2021/10/27 02:23:56;;;;;;;21.45;16.70;;;;;;;6.91;91.80;99874.97;1764675;80;20941;-67
2021/10/27 02:26:23;;;;;;;23.22;16.75;;;;;;;6.90;91.87;99880.23;1766048;80;21740;-67
2021/10/27 02:28:51;;;;;;;19.65;16.12;;;;;;;6.87;91.89;99867.34;1764783;80;20992;-67
2021/10/27 02:31:18;;;;;;;;;;;;;;;6.84;91.85;99869.58;1773267;80;21048;-67
2021/10/27 02:33:44;;;;;;;22.10;16.97;;;;;;;6.79;91.73;99880.53;1768099;80;20173;-67
2021/10/27 02:36:11;;;;;;;21.10;16.70;;;;;;;6.73;91.77;99875.53;1765463;80;20946;-67
2021/10/27 02:38:38;;;;;;;20.62;16.65;;;;;;;6.70;91.88;99862.65;1762237;80;21128;-67
2021/10/27 02:41:05;;;;;;;20.17;15.75;;;;;;;6.67;91.88;99875.72;1766462;80;21501;-67
2021/10/27 02:43:32;;;;;;;23.98;17.73;;;;;;;6.64;91.93;99875.81;1770149;80;20990;-67
2021/10/27 02:45:59;;;;;;;23.97;16.93;;;;;;;6.61;91.94;99870.67;1759886;80;20981;-67
2021/10/27 02:48:25;;;;;;;21.00;17.00;;;;;;;6.60;92.00;99875.47;1764604;80;20954;-67
2021/10/27 02:50:52;;;;;;;25.10;17.50;;;;;;;6.60;92.12;99879.36;1766174;80;21123;-67
2021/10/27 02:53:19;;;;;;;24.45;17.42;;;;;;;6.62;92.17;99887.96;1760293;80;21112;-67
2021/10/27 02:55:46;;;;;;;25.30;18.10;;;;;;;6.65;92.24;99883.98;1746601;80;20958;-67
2021/10/27 02:58:12;;;;;;;25.70;18.37;;;;;;;6.69;92.29;99885.58;1755273;80;21571;-67
2021/10/27 03:00:39;;;;;;;23.65;18.05;;;;;;;6.71;92.28;99874.72;1743780;80;21591;-67
2021/10/27 03:03:06;;;;;;;22.27;17.80;;;;;;;6.75;92.29;99878.94;1751864;80;21107;-67
2021/10/27 03:05:33;;;;;;;23.67;17.60;;;;;;;6.79;92.29;99875.80;1734824;80;20984;-67
2021/10/27 03:07:59;;;;;;;18.85;16.77;;;;;;;6.81;92.29;99870.97;1753242;80;21301;-67
2021/10/27 03:10:26;;;;;;;26.67;18.07;;;;;;;6.82;92.26;99862.28;1745927;80;21026;-67
2021/10/27 03:12:53;;;;;;;19.82;16.17;;;;;;;6.85;92.31;99862.19;1756912;80;21574;-67
2021/10/27 03:15:19;;;;;;;18.90;14.60;;;;;;;6.87;92.30;99851.31;1741564;80;21619;-67
2021/10/27 03:17:46;;;;;;;21.45;17.67;;;;;;;6.90;92.32;99849.92;1758992;80;21786;-67
2021/10/27 03:20:13;;;;;;;24.10;16.95;;;;;;;6.91;92.27;99851.61;1755374;80;21594;-66
2021/10/27 03:22:39;;;;;;;25.25;16.07;;;;;;;6.93;92.34;99852.42;1743476;80;21524;-67
2021/10/27 03:25:07;;;;;;;26.52;17.98;;;;;;;6.95;92.35;99850.64;1750314;80;20957;-67
2021/10/27 03:27:34;;;;;;;22.48;16.50;;;;;;;6.98;92.38;99847.10;1757229;80;21081;-67
2021/10/27 03:30:00;;;;;;;22.05;17.32;;;;;;;7.01;92.39;99848.76;1719013;80;20961;-67
2021/10/27 03:32:27;;;;;;;22.45;14.07;;;;;;;7.04;92.44;99859.05;1723710;82;21028;-67
2021/10/27 03:34:53;;;;;;;25.07;14.00;;;;;;;7.07;92.43;99856.35;1745030;80;21036;-67
2021/10/27 03:37:20;;;;;;;16.85;14.63;;;;;;;7.08;92.44;99851.09;1743985;81;21602;-67
2021/10/27 03:39:47;;;;;;;20.85;15.45;;;;;;;7.10;92.44;99851.06;1742786;80;21579;-67
2021/10/27 03:42:13;;;;;;;22.07;15.78;;;;;;;7.11;92.44;99850.16;1743162;80;21665;-67
2021/10/27 03:44:40;;;;;;;24.45;16.55;;;;;;;7.13;92.41;99858.75;1741159;80;21125;-67
2021/10/27 03:47:06;;;;;;;19.23;12.73;;;;;;;7.13;92.35;99854.86;1746345;80;20931;-67
2021/10/27 03:49:33;;;;;;;15.40;13.05;;;;;;;7.12;92.34;99857.06;1742549;80;21045;-67
2021/10/27 03:52:01;;;;;;;22.87;17.07;;;;;;;7.10;92.33;99849.31;1753321;80;21172;-67
2021/10/27 03:54:27;;;;;;;23.35;15.98;;;;;;;7.09;92.34;99854.11;1759702;80;21001;-67
2021/10/27 03:56:54;;;;;;;19.30;13.32;;;;;;;7.06;92.36;99854.66;1765312;80;21017;-67
2021/10/27 03:59:21;;;;;;;16.70;13.53;;;;;;;7.05;92.42;99851.64;1761163;80;20942;-67
2021/10/27 04:01:47;;;;;;;21.85;16.40;;;;;;;7.04;92.46;99846.06;1748387;80;21112;-67
2021/10/27 04:04:14;;;;;;;29.10;16.10;;;;;;;7.02;92.51;99850.45;1749835;79;21058;-67
2021/10/27 04:06:41;;;;;;;19.53;13.83;;;;;;;6.98;92.43;99843.66;1744533;80;21037;-67
2021/10/27 04:09:07;;;;;;;17.65;14.20;;;;;;;6.94;92.39;99846.33;1748531;80;20989;-67
2021/10/27 04:11:34;;;;;;;22.52;15.88;;;;;;;6.92;92.45;99845.55;1737796;81;21048;-67
2021/10/27 04:14:00;;;;;;;24.87;16.52;;;;;;;6.90;92.47;99847.33;1742091;80;21068;-67
2021/10/27 04:16:27;;;;;;;18.80;13.43;;;;;;;6.90;92.54;99852.97;1751606;79;21128;-67
2021/10/27 04:18:54;;;;;;;17.60;13.77;;;;;;;6.92;92.65;99852.48;1744491;80;21007;-67
2021/10/27 04:21:20;;;;;;;20.08;16.73;;;;;;;6.95;92.83;99849.80;1739526;80;20949;-66
2021/10/27 04:23:47;;;;;;;20.87;16.00;;;;;;;7.00;92.90;99847.91;1747154;80;20989;-67
2021/10/27 04:26:14;;;;;;;27.45;17.60;;;;;;;7.05;92.94;99849.05;1764543;80;21152;-67
2021/10/27 04:28:41;;;;;;;22.07;16.85;;;;;;;7.08;92.95;99852.84;1752278;80;21232;-67
2021/10/27 04:31:07;;;;;;;22.13;17.80;;;;;;;7.13;92.98;99845.77;1759483;80;20962;-67
2021/10/27 04:33:34;;;;;;;25.43;18.02;;;;;;;7.18;92.98;99843.43;1757096;80;20992;-67
2021/10/27 04:36:01;;;;;;;19.12;14.40;;;;;;;7.21;92.97;99836.00;1753404;80;20973;-68
2021/10/27 04:38:27;;;;;;;25.80;19.27;;;;;;;7.27;92.97;99838.84;1751565;80;20998;-67
2021/10/27 04:40:55;;;;;;;26.30;19.47;;;;;;;7.29;92.99;99839.66;1743059;80;23452;-68
2021/10/27 04:43:22;;;;;;;23.98;18.62;;;;;;;7.33;93.05;99830.40;1751724;81;27089;-67
2021/10/27 04:45:49;;;;;;;20.77;16.42;;;;;;;7.38;93.09;99830.27;1751065;81;21035;-67
2021/10/27 04:48:16;;;;;;;23.42;15.78;;;;;;;7.43;93.14;99831.42;1751351;80;21103;-68
2021/10/27 04:50:42;;;;;;;21.30;17.03;;;;;;;7.46;93.13;99828.72;1755664;80;20917;-67
2021/10/27 04:53:19;;;;;;;21.70;16.30;;;;;;;7.51;93.15;99833.33;1759585;80;21058;-67
2021/10/27 04:55:48;;;;;;;22.82;17.30;;;;;;;7.55;93.20;99834.91;1751858;80;21370;-67
2021/10/27 04:58:15;;;;;;;29.32;20.68;;;;;;;7.59;93.24;99833.92;1770491;80;21606;-67
2021/10/27 05:00:42;;;;;;;31.45;20.95;;;;;;;7.65;93.21;99838.06;1740371;80;21020;-67
2021/10/27 05:03:10;;;;;;;21.48;15.90;;;;;;;7.69;93.23;99837.89;1755412;80;20958;-67
2021/10/27 05:05:45;;;;;;;25.95;20.08;;;;;;;7.72;93.20;99832.59;1777763;78;22279;-67
2021/10/27 05:08:05;;;;;;;25.00;17.30;;;;;;;7.76;93.19;99830.75;1764974;78;20989;-67
2021/10/27 05:10:32;;;;;;;29.32;21.00;;;;;;;7.78;93.19;99825.87;1753299;78;20950;-68
2021/10/27 05:12:59;;;;;;;35.45;22.48;;;;;;;7.82;93.22;99828.78;1761177;80;21645;-67
2021/10/27 05:15:26;;;;;;;37.33;23.47;;;;;;;7.84;93.25;99828.29;1762822;80;20969;-68
2021/10/27 05:17:53;;;;;;;31.65;21.23;;;;;;;7.88;93.27;99826.88;1763886;79;21052;-68
2021/10/27 05:20:20;;;;;;;29.33;21.30;;;;;;;7.90;93.22;99830.25;1750519;80;20973;-67
2021/10/27 05:22:46;;;;;;;34.23;23.00;;;;;;;7.94;93.26;99827.96;1767772;80;21073;-68
2021/10/27 05:25:13;;;;;;;25.23;17.83;;;;;;;7.95;93.26;99830.95;1765410;80;21568;-69
2021/10/27 05:27:40;;;;;;;27.40;19.53;;;;;;;7.99;93.29;99832.55;1759204;80;21546;-69
2021/10/27 05:30:08;;;;;;;25.35;19.07;;;;;;;7.99;93.27;99839.06;1762654;80;21889;-69
2021/10/27 05:32:35;;;;;;;29.40;19.87;;;;;;;8.02;93.34;99846.30;1750098;78;21079;-70
2021/10/27 05:35:02;;;;;;;27.27;20.57;;;;;;;8.05;93.33;99840.14;1775899;78;21464;-70
2021/10/27 05:37:29;;;;;;;29.32;20.55;;;;;;;8.06;93.32;99839.23;1773731;80;21514;-70
2021/10/27 05:39:55;;;;;;;27.32;19.60;;;;;;;8.08;93.39;99840.03;1768159;80;20981;-74
2021/10/27 05:42:27;;;;;;;29.32;20.30;;;;;;;8.10;93.38;99843.43;1767442;80;21086;-74
2021/10/27 05:44:51;;;;;;;30.50;20.72;;;;;;;8.11;93.40;99842.52;1764944;80;21060;-74
2021/10/27 05:47:18;;;;;;;29.60;20.15;;;;;;;8.13;93.42;99839.42;1765537;80;21081;-73
2021/10/27 05:49:54;;;;;;;30.12;21.40;;;;;;;8.15;93.47;99836.32;1767025;80;21126;-74
2021/10/27 05:57:40;;;;;;;27.37;20.45;;;;;;;8.19;93.51;99845.70;1692697;82;21006;-67
2021/10/27 06:00:10;;;;;;;31.27;21.23;;;;;;;8.21;93.48;99843.91;1730040;81;21010;-67
2021/10/27 06:02:38;;;;;;;30.80;20.75;;;;;;;8.22;93.54;99842.98;1724986;81;21502;-67
2021/10/27 06:05:11;;;;;;;27.45;20.20;;;;;;;8.25;93.59;99842.03;1727809;81;21069;-68
2021/10/27 06:07:38;;;;;;;28.70;20.10;;;;;;;8.28;93.59;99845.36;1727801;81;22327;-72
2021/10/27 06:10:06;;;;;;;31.95;21.82;;;;;;;8.32;93.64;99850.45;1728128;81;21026;-74
2021/10/27 06:12:33;;;;;;;27.20;20.50;;;;;;;8.36;93.66;99846.85;1733102;81;20998;-71
2021/10/27 06:15:03;;;;;;;28.25;21.35;;;;;;;8.38;93.66;99842.45;1733108;81;20990;-70
2021/10/27 06:17:30;;;;;;;25.52;19.02;;;;;;;8.41;93.66;99842.38;1724800;81;21033;-71
2021/10/27 06:20:00;;;;;;;26.05;20.32;;;;;;;8.45;93.71;99838.73;1727701;81;21457;-70
2021/10/27 06:22:27;;;;;;;29.05;21.35;;;;;;;8.48;93.70;99838.63;1728296;81;22247;-70
2021/10/27 06:24:54;;;;;;;29.57;20.77;;;;;;;8.51;93.70;99838.50;1723463;81;20989;-71
2021/10/27 06:27:22;;;;;;;27.42;19.52;;;;;;;8.54;93.65;99837.55;1729309;81;21073;-70
2021/10/27 06:30:03;;;;;;;26.48;18.67;;;;;;;8.56;93.68;99841.79;1727513;81;20954;-71
2021/10/27 06:32:37;;;;;;;24.07;19.65;;;;;;;8.59;93.68;99842.13;1731490;81;21104;-72
2021/10/27 06:38:51;;;;;;;28.00;21.15;;;;;;;8.63;93.66;99848.48;1673388;84;21690;-70
2021/10/27 06:46:24;;;;;;;24.12;18.90;;;;;;;8.64;93.71;99854.07;1670934;84;21155;-70
2021/10/27 06:48:29;;;;;;;26.42;19.62;;;;;;;8.64;93.75;99852.77;1665949;84;21509;-70
2021/10/27 06:50:56;;;;;;;27.65;20.75;;;;;;;8.64;93.81;99855.38;1669793;83;21063;-68
2021/10/27 06:53:24;;;;;;;26.33;19.87;;;;;;;8.66;93.81;99854.88;1672501;83;21003;-70
2021/10/27 06:55:51;;;;;;;26.12;18.98;;;;;;;8.67;93.82;99855.25;1683585;83;21175;-71
2021/10/27 06:58:20;;;;;;;23.10;18.90;;;;;;;8.69;93.89;99856.52;1679006;83;21103;-71
2021/10/27 07:00:58;;;;;;;25.52;20.17;;;;;;;8.70;93.89;99852.53;1687346;83;21064;-70
2021/10/27 07:17:45;;;;;;;;;;;;;;;8.80;94.01;99857.42;1727868;81;21018;-65
2021/10/27 07:20:27;;;;;;;28.25;20.90;;;;;;;8.82;94.01;99856.45;1723081;81;20635;-66
2021/10/27 07:25:57;;;;;;;25.57;19.90;;;;;;;8.90;94.16;99845.72;1694976;83;20983;-70
2021/10/27 07:28:48;;;;;;;25.53;20.03;;;;;;;8.95;94.10;99849.00;1690897;83;21645;-70
2021/10/27 07:31:31;;;;;;;25.97;19.23;;;;;;;9.04;94.19;99851.25;1679014;83;21705;-69
2021/10/27 07:34:11;;;;;;;24.90;18.77;;;;;;;9.11;94.13;99850.11;1673275;83;21102;-69
2021/10/27 07:42:04;;;;;;;20.48;17.37;;;;;;;9.37;94.10;99845.62;1687103;83;21594;-70
2021/10/27 07:44:31;;;;;;;24.98;18.30;;;;;;;9.41;93.96;99836.78;1697694;83;21114;-70
2021/10/27 07:47:00;;;;;;;24.95;18.42;;;;;;;9.44;93.90;99841.87;1689407;83;21135;-70
2021/10/27 07:49:27;;;;;;;24.65;17.65;;;;;;;9.46;93.88;99841.79;1690847;83;21058;-69
2021/10/27 07:51:56;;;;;;;26.20;21.17;;;;;;;9.47;93.84;99849.56;1690478;83;21887;-70
2021/10/27 07:54:23;;;;;;;23.10;18.25;;;;;;;9.48;93.98;99835.61;1694037;83;21176;-69
2021/10/27 07:56:57;;;;;;;22.85;17.75;;;;;;;9.49;93.92;99833.37;1686864;83;21104;-69
2021/10/27 07:59:24;;;;;;;22.27;17.70;;;;;;;9.53;94.01;99840.18;1701856;83;21638;-70
2021/10/27 08:01:51;;;;;;;20.82;18.05;;;;;;;9.62;94.13;99846.31;1692386;83;21742;-70
2021/10/27 08:04:17;;;;;;;20.70;16.67;;;;;;;9.69;94.08;99843.44;1685979;83;21617;-70
2021/10/27 08:06:51;;;;;;;19.53;15.20;;;;;;;9.76;94.07;99839.68;1670400;84;21596;-70
2021/10/27 08:09:35;;;;;;;;;;;;;;;;;;;;;
2021/10/27 08:12:12;;;;;;;18.30;15.08;;;;;;;9.93;93.97;99837.20;1650982;85;21072;-68
2021/10/27 08:14:39;;;;;;;16.97;14.43;;;;;;;9.97;93.88;99829.66;1621337;87;21074;-68
2021/10/27 08:17:07;;;;;;;20.20;15.43;;;;;;;10.02;93.81;99835.95;1639577;86;21194;-69
2021/10/27 08:19:34;;;;;;;17.95;13.85;;;;;;;10.04;93.81;99837.59;1676638;84;21164;-69
2021/10/27 08:22:04;;;;;;;16.25;13.40;;;;;;;10.06;93.81;99843.59;1671102;84;21098;-69
2021/10/27 08:24:29;;;;;;;16.42;12.63;;;;;;;10.07;93.72;99840.06;1674564;84;21033;-70
2021/10/27 08:27:20;;;;;;;17.48;13.98;;;;;;;10.07;93.79;99838.76;1682709;83;21575;-69
2021/10/27 08:29:46;;;;;;;16.85;12.33;;;;;;;10.12;93.82;99834.66;1739762;80;21135;-70
2021/10/27 08:32:29;;;;;;;16.67;12.75;;;;;;;10.17;93.92;99835.77;1746108;79;21003;-69
2021/10/27 08:34:49;;;;;;;17.92;12.05;;;;;;;10.20;93.78;99839.55;1749508;79;20937;-70
2021/10/27 08:37:17;;;;;;;13.10;11.35;;;;;;;10.22;93.83;99838.56;1742576;80;21032;-70
2021/10/27 08:39:48;;;;;;;13.70;11.38;;;;;;;10.29;93.85;99844.39;1750614;80;20984;-70
2021/10/27 08:42:17;;;;;;;20.70;12.58;;;;;;;10.33;93.85;99832.03;1754914;80;21085;-70
2021/10/27 08:44:47;;;;;;;15.43;11.25;;;;;;;10.38;93.94;99837.44;1751492;80;21083;-70
2021/10/27 08:47:14;;;;;;;11.85;10.40;;;;;;;10.44;93.88;99833.25;1750851;80;20906;-70
2021/10/27 08:49:47;;;;;;;11.85;10.20;;;;;;;10.46;93.73;99828.81;1755627;80;21076;-70
2021/10/27 09:14:25;;;;;;;14.28;10.70;;;;;;;10.27;94.02;99838.38;1842898;75;21969;-71
2021/10/27 09:36:34;;;;;;;8.33;6.95;;;;;;;10.42;93.34;99846.84;1741435;80;21110;-70
2021/10/27 09:55:41;;;;;;;8.83;6.72;;;;;;;10.66;93.43;99853.17;1640604;85;21001;-70
2021/10/27 10:06:43;;;;;;;9.20;5.45;;;;;;;10.55;93.49;99848.89;1635133;85;20970;-71
2021/10/27 10:09:13;;;;;;;6.70;5.40;;;;;;;10.56;93.53;99848.84;1618018;87;21588;-73
2021/10/27 10:11:43;;;;;;;7.03;5.67;;;;;;;10.62;93.58;99855.09;1635764;86;21104;-71
2021/10/27 10:14:13;;;;;;;10.60;6.40;;;;;;;10.68;93.61;99856.58;1609847;87;21580;-71
2021/10/27 10:16:53;;;;;;;6.92;5.97;;;;;;;10.71;93.47;99864.27;1611054;87;21590;-70
2021/10/27 10:19:31;;;;;;;6.75;5.65;;;;;;;10.73;93.45;99863.28;1638930;86;21020;-72
2021/10/27 10:22:23;;;;;;;6.58;5.72;;;;;;;10.76;93.49;99864.91;1638416;86;22648;-72
2021/10/27 10:25:23;;;;;;;6.40;5.78;;;;;;;10.75;93.39;99863.19;1640111;86;21077;-70
2021/10/27 10:28:01;;;;;;;5.87;5.33;;;;;;;10.74;93.37;99858.90;1603552;87;24574;-71
2021/10/27 10:30:52;;;;;;;8.18;5.10;;;;;;;10.70;93.25;99857.36;1618496;86;21137;-71
2021/10/27 10:33:49;;;;;;;5.92;5.25;;;;;;;10.64;93.21;99853.70;1635813;86;21077;-69
2021/10/27 10:36:56;;;;;;;6.78;5.33;;;;;;;10.60;93.25;99858.68;1626826;86;21056;-72
2021/10/27 10:39:52;;;;;;;6.72;5.85;;;;;;;10.61;93.43;99862.97;1624652;86;21082;-71
2021/10/27 10:43:44;;;;;;;5.87;5.12;;;;;;;10.60;93.42;99848.23;1626097;86;21107;-71
2021/10/27 10:57:50;;;;;;;7.90;6.58;;;;;;;10.72;93.49;99855.50;1747269;80;21024;-70
2021/10/27 11:37:54;;;;;;;10.43;8.65;;;;;;;10.72;93.67;99843.28;1728117;81;21905;-69
2021/10/27 11:40:39;;;;;;;10.55;8.60;;;;;;;10.72;93.52;99847.67;1729785;81;21024;-70
2021/10/27 11:43:16;;;;;;;16.80;9.60;;;;;;;10.70;93.53;99839.08;1695185;81;21175;-71
2021/10/27 11:45:40;;;;;;;10.70;8.48;;;;;;;10.72;93.64;99833.30;1721845;81;22286;-70
2021/10/27 11:48:14;;;;;;;10.40;8.70;;;;;;;10.75;93.64;99839.69;1727783;81;21000;-71
2021/10/27 11:50:58;;;;;;;11.43;8.63;;;;;;;10.77;93.60;99837.86;1719925;81;21013;-71
2021/10/27 11:53:37;;;;;;;11.97;8.63;;;;;;;10.80;93.65;99823.34;1747786;80;20987;-72
2021/10/27 11:56:14;;;;;;;10.40;8.93;;;;;;;10.82;93.56;99821.98;1745769;80;21137;-70
2021/10/27 11:58:44;;;;;;;10.70;8.98;;;;;;;10.82;93.53;99816.77;1720928;80;21824;-70
2021/10/27 12:01:31;;;;;;;10.93;9.35;;;;;;;10.81;93.47;99805.48;1753277;80;22105;-68
2021/10/27 12:04:07;;;;;;;13.32;9.75;;;;;;;10.81;93.55;99809.39;1752673;80;21015;-68
2021/10/27 12:06:49;;;;;;;11.00;9.25;;;;;;;10.85;93.62;99801.78;1758193;80;21064;-68
2021/10/27 12:15:04;;;;;;;12.55;9.43;;;;;;;10.88;93.54;99809.48;1758530;80;21823;-70
2021/10/27 12:21:26;;;;;;;12.35;9.35;;;;;;;11.00;93.56;99798.05;1813769;77;22686;-70
2021/10/27 12:24:16;;;;;;;11.53;9.18;;;;;;;10.95;93.54;99805.67;1817073;77;20878;-70
2021/10/27 12:27:21;;;;;;;11.40;9.35;;;;;;;10.95;93.56;99805.67;1737707;81;21191;-70
2021/10/27 12:29:27;;;;;;;11.97;9.25;;;;;;;10.94;93.50;99809.17;1776776;79;22206;-70
2021/10/27 12:32:13;;;;;;;10.80;9.65;;;;;;;10.94;93.48;99811.79;1751958;80;21023;-69
2021/10/27 12:34:56;;;;;;;14.23;9.35;;;;;;;10.91;93.47;99809.33;1753411;80;21530;-69
2021/10/27 12:37:35;;;;;;;12.00;9.23;;;;;;;10.93;93.63;99812.72;1737552;81;21079;-70
2021/10/27 12:40:31;;;;;;;14.20;10.30;;;;;;;10.97;93.62;99808.19;1737421;81;21352;-69
2021/10/27 12:43:06;;;;;;;14.05;11.18;;;;;;;11.00;93.51;99794.14;1737150;81;21710;-69
2021/10/27 12:45:51;;;;;;;14.63;10.85;;;;;;;10.96;93.54;99792.14;1715515;81;21574;-69
2021/10/27 12:48:22;;;;;;;13.98;11.18;;;;;;;10.95;93.52;99805.67;1738011;81;21080;-69
2021/10/27 12:51:02;;;;;;;14.00;10.00;;;;;;;10.96;93.63;99807.34;1736586;81;20926;-70
2021/10/27 12:53:45;;;;;;;13.80;10.55;;;;;;;11.00;93.62;99812.42;1740865;81;21080;-70
2021/10/27 12:56:25;;;;;;;14.60;10.18;;;;;;;11.00;93.59;99809.81;1735934;81;20921;-70
2021/10/27 12:59:03;;;;;;;13.85;9.63;;;;;;;10.98;93.48;99813.36;1765411;80;21053;-68
2021/10/27 13:09:18;;;;;;;14.23;9.23;;;;;;;11.00;93.60;99796.75;1748517;80;21000;-70
2021/10/27 13:22:30;;;;;;;12.47;8.18;;;;;;;11.02;93.65;99793.61;1711069;82;21180;-69
2021/10/27 13:30:27;;;;;;;14.55;7.90;;;;;;;11.17;93.75;99817.69;1737030;81;20949;-70
2021/10/27 13:32:53;;;;;;;9.15;7.10;;;;;;;11.25;93.80;99809.02;1713249;81;21314;-71
2021/10/27 13:35:21;;;;;;;7.90;6.83;;;;;;;11.29;93.60;99803.20;1722829;81;21076;-70
2021/10/27 13:37:48;;;;;;;;;;;;;;;11.31;93.51;99800.87;1761390;80;21081;-71
2021/10/27 13:40:16;;;;;;;8.25;6.37;;;;;;;11.32;93.48;99798.66;1727921;81;20212;-67
2021/10/27 14:16:24;;;;;;;8.60;4.47;;;;;;;11.83;92.93;99823.13;1715117;81;21076;-69
2021/10/27 15:21:30;;;;;;;8.08;4.08;;;;;;;11.45;92.41;99790.20;1771769;79;21288;-67
2021/10/27 15:29:35;;;;;;;10.58;4.87;;;;;;;11.40;92.37;99803.05;1765775;80;21101;-64
2021/10/27 15:31:41;;;;;;;8.80;4.47;;;;;;;11.39;92.40;99810.49;1730506;80;21674;-66
2021/10/27 15:36:56;;;;;;;8.23;4.78;;;;;;;11.37;92.39;99814.97;1778177;79;20969;-67
2021/10/27 15:44:41;;;;;;;9.78;5.42;;;;;;;11.34;92.40;99811.20;1783462;80;20997;-66
2021/10/27 15:52:36;;;;;;;6.15;4.17;;;;;;;11.29;92.44;99814.96;1746411;80;21132;-66
2021/10/27 15:55:08;;;;;;;6.08;3.85;;;;;;;11.27;92.43;99808.48;1745333;80;28255;-66
2021/10/27 15:57:35;;;;;;;7.00;4.17;;;;;;;11.27;92.45;99811.11;1722793;81;21097;-66
2021/10/27 16:00:04;;;;;;;6.05;4.30;;;;;;;11.26;92.43;99806.81;1749572;81;21196;-66
2021/10/27 16:02:31;;;;;;;5.17;3.72;;;;;;;11.25;92.44;99794.64;1750152;81;21056;-66
2021/10/27 16:04:57;;;;;;;6.28;3.90;;;;;;;11.23;92.48;99797.81;1754426;80;21048;-66
2021/10/27 16:07:28;;;;;;;7.53;4.67;;;;;;;11.23;92.50;99804.34;1747553;81;22418;-66
2021/10/27 16:10:00;;;;;;;6.37;4.78;;;;;;;11.24;92.48;99799.96;1750262;80;20977;-66
2021/10/27 16:12:23;;;;;;;5.55;4.00;;;;;;;11.23;92.55;99799.12;1748906;80;21655;-66
2021/10/27 16:14:50;;;;;;;5.93;4.20;;;;;;;11.22;92.57;99809.17;1753840;80;21061;-65
2021/10/27 16:17:17;;;;;;;5.15;4.20;;;;;;;11.24;92.58;99815.17;1717886;81;21650;-65
2021/10/27 16:19:44;;;;;;;5.35;3.62;;;;;;;11.24;92.58;99819.09;1752909;81;20950;-66
2021/10/27 16:22:11;;;;;;;6.15;4.50;;;;;;;11.25;92.58;99812.94;1722414;81;21085;-66
2021/10/27 16:24:39;;;;;;;9.15;4.72;;;;;;;11.25;92.62;99822.08;1744716;81;21105;-65
2021/10/27 16:27:08;;;;;;;5.55;4.30;;;;;;;11.25;92.64;99818.16;1743034;81;21025;-66
2021/10/27 16:29:35;;;;;;;5.72;4.80;;;;;;;11.25;92.68;99823.39;1726013;81;21057;-66
2021/10/27 16:32:03;;;;;;;6.50;4.55;;;;;;;11.25;92.66;99812.94;1751969;80;21540;-66
2021/10/27 16:34:30;;;;;;;8.80;4.92;;;;;;;11.26;92.69;99828.16;1750805;81;20934;-67
2021/10/27 16:36:58;;;;;;;5.87;4.35;;;;;;;11.25;92.68;99831.23;1725643;81;21101;-67
2021/10/27 16:39:25;;;;;;;9.10;6.53;;;;;;;11.25;92.70;99839.08;1749378;80;21045;-66
2021/10/27 16:41:52;;;;;;;13.00;6.70;;;;;;;11.23;92.71;99844.86;1745480;80;20993;-67
2021/10/27 16:44:20;;;;;;;8.83;4.83;;;;;;;11.24;92.76;99842.63;1730868;80;21088;-66